sensor_id;sensor_type;location;lat;lon;timestamp;pressure;altitude;pressure_sealevel;temperature;humidity
32747;BME280;19118;50.860;13.662;2023-01-25T00:01:17;98849.31;;;-1.24;100.00
32747;BME280;19118;50.860;13.662;2023-01-25T00:06:18;98854.09;;;-1.16;100.00
32747;BME280;19118;50.860;13.662;2023-01-25T00:11:19;98854.44;;;-1.22;100.00
32747;BME280;19118;50.860;13.662;2023-01-25T00:16:21;98858.88;;;-1.24;100.00
32747;BME280;19118;50.860;13.662;2023-01-25T00:21:23;98859.38;;;-1.18;100.00
32747;BME280;19118;50.860;13.662;2023-01-25T00:26:24;98858.53;;;-1.01;100.00
32747;BME280;19118;50.860;13.662;2023-01-25T00:31:31;98846.47;;;-1.02;100.00
32747;BME280;19118;50.860;13.662;2023-01-25T00:41:37;98856.56;;;-1.13;100.00
32747;BME280;19118;50.860;13.662;2023-01-25T00:46:38;98850.75;;;-1.18;100.00
32747;BME280;19118;50.860;13.662;2023-01-25T00:51:39;98850.13;;;-1.06;100.00
32747;BME280;19118;50.860;13.662;2023-01-25T00:56:40;98848.00;;;-1.15;100.00
32747;BME280;19118;50.860;13.662;2023-01-25T01:01:41;98853.19;;;-1.15;100.00
32747;BME280;19118;50.860;13.662;2023-01-25T01:06:41;98846.78;;;-1.08;100.00
32747;BME280;19118;50.860;13.662;2023-01-25T01:11:42;98855.66;;;-1.12;100.00
32747;BME280;19118;50.860;13.662;2023-01-25T01:16:43;98856.47;;;-1.11;100.00
32747;BME280;19118;50.860;13.662;2023-01-25T01:21:43;98851.13;;;-1.08;100.00
32747;BME280;19118;50.860;13.662;2023-01-25T01:26:43;98848.59;;;-1.10;100.00
32747;BME280;19118;50.860;13.662;2023-01-25T01:31:44;98847.16;;;-1.15;100.00
32747;BME280;19118;50.860;13.662;2023-01-25T01:36:52;98838.22;;;-1.10;100.00
32747;BME280;19118;50.860;13.662;2023-01-25T01:41:53;98817.63;;;-1.13;100.00
32747;BME280;19118;50.860;13.662;2023-01-25T01:46:55;98816.06;;;-1.00;100.00
32747;BME280;19118;50.860;13.662;2023-01-25T01:52:06;98815.16;;;-0.99;100.00
32747;BME280;19118;50.860;13.662;2023-01-25T01:57:12;98811.38;;;-0.93;100.00
32747;BME280;19118;50.860;13.662;2023-01-25T02:02:14;98804.50;;;-0.94;100.00
32747;BME280;19118;50.860;13.662;2023-01-25T02:07:29;98804.41;;;-0.93;100.00
32747;BME280;19118;50.860;13.662;2023-01-25T02:12:31;98790.50;;;-0.92;100.00
32747;BME280;19118;50.860;13.662;2023-01-25T02:17:34;98791.88;;;-0.84;100.00
32747;BME280;19118;50.860;13.662;2023-01-25T02:23:03;98788.34;;;-0.83;100.00
32747;BME280;19118;50.860;13.662;2023-01-25T02:28:15;98782.84;;;-0.77;100.00
32747;BME280;19118;50.860;13.662;2023-01-25T02:33:17;98778.47;;;-0.77;100.00
32747;BME280;19118;50.860;13.662;2023-01-25T02:38:19;98770.56;;;-0.91;100.00
32747;BME280;19118;50.860;13.662;2023-01-25T02:43:27;98767.81;;;-1.04;100.00
32747;BME280;19118;50.860;13.662;2023-01-25T02:48:28;98758.78;;;-0.97;100.00
32747;BME280;19118;50.860;13.662;2023-01-25T02:53:28;98751.69;;;-0.77;100.00
32747;BME280;19118;50.860;13.662;2023-01-25T02:58:29;98734.75;;;-1.00;100.00
32747;BME280;19118;50.860;13.662;2023-01-25T03:03:29;98727.97;;;-0.87;100.00
32747;BME280;19118;50.860;13.662;2023-01-25T03:08:29;98726.38;;;-0.90;100.00
32747;BME280;19118;50.860;13.662;2023-01-25T03:13:31;98721.81;;;-0.70;100.00
32747;BME280;19118;50.860;13.662;2023-01-25T03:18:33;98712.13;;;-0.82;100.00
32747;BME280;19118;50.860;13.662;2023-01-25T03:23:34;98712.63;;;-0.92;100.00
32747;BME280;19118;50.860;13.662;2023-01-25T03:28:36;98710.69;;;-1.20;100.00
32747;BME280;19118;50.860;13.662;2023-01-25T03:33:38;98708.25;;;-1.07;100.00
32747;BME280;19118;50.860;13.662;2023-01-25T03:38:39;98709.13;;;-0.91;100.00
32747;BME280;19118;50.860;13.662;2023-01-25T03:43:40;98699.88;;;-0.80;100.00
32747;BME280;19118;50.860;13.662;2023-01-25T03:48:41;98699.72;;;-0.93;100.00
32747;BME280;19118;50.860;13.662;2023-01-25T03:53:41;98693.38;;;-0.88;100.00
32747;BME280;19118;50.860;13.662;2023-01-25T03:58:48;98693.63;;;-0.76;100.00
32747;BME280;19118;50.860;13.662;2023-01-25T04:03:49;98687.50;;;-1.07;100.00
32747;BME280;19118;50.860;13.662;2023-01-25T04:08:50;98685.66;;;-1.05;100.00
32747;BME280;19118;50.860;13.662;2023-01-25T04:13:53;98675.38;;;-1.22;100.00
32747;BME280;19118;50.860;13.662;2023-01-25T04:18:55;98678.09;;;-1.25;100.00
32747;BME280;19118;50.860;13.662;2023-01-25T04:23:56;98675.00;;;-1.16;100.00
32747;BME280;19118;50.860;13.662;2023-01-25T04:28:57;98676.78;;;-1.17;100.00
32747;BME280;19118;50.860;13.662;2023-01-25T04:33:57;98668.09;;;-1.00;100.00
32747;BME280;19118;50.860;13.662;2023-01-25T04:38:58;98675.13;;;-1.02;100.00
32747;BME280;19118;50.860;13.662;2023-01-25T04:44:00;98672.09;;;-1.10;100.00
32747;BME280;19118;50.860;13.662;2023-01-25T04:49:00;98662.38;;;-1.22;100.00
32747;BME280;19118;50.860;13.662;2023-01-25T04:54:01;98666.22;;;-1.13;100.00
32747;BME280;19118;50.860;13.662;2023-01-25T04:59:02;98673.94;;;-1.12;100.00
32747;BME280;19118;50.860;13.662;2023-01-25T05:04:03;98673.75;;;-1.25;100.00
32747;BME280;19118;50.860;13.662;2023-01-25T05:09:10;98657.19;;;-1.22;100.00
32747;BME280;19118;50.860;13.662;2023-01-25T05:14:12;98654.69;;;-1.08;100.00
32747;BME280;19118;50.860;13.662;2023-01-25T05:19:13;98655.00;;;-0.98;100.00
32747;BME280;19118;50.860;13.662;2023-01-25T05:24:30;98652.66;;;-1.34;100.00
32747;BME280;19118;50.860;13.662;2023-01-25T05:29:38;98654.69;;;-1.08;100.00
32747;BME280;19118;50.860;13.662;2023-01-25T05:34:41;98640.94;;;-0.94;100.00
32747;BME280;19118;50.860;13.662;2023-01-25T05:39:42;98642.63;;;-1.09;100.00
32747;BME280;19118;50.860;13.662;2023-01-25T05:44:44;98628.91;;;-1.11;100.00
32747;BME280;19118;50.860;13.662;2023-01-25T05:49:45;98619.34;;;-1.26;100.00
32747;BME280;19118;50.860;13.662;2023-01-25T05:54:53;98618.06;;;-1.51;100.00
32747;BME280;19118;50.860;13.662;2023-01-25T05:59:53;98615.47;;;-1.51;100.00
32747;BME280;19118;50.860;13.662;2023-01-25T06:04:54;98612.47;;;-1.27;100.00
32747;BME280;19118;50.860;13.662;2023-01-25T06:09:54;98615.31;;;-1.16;100.00
32747;BME280;19118;50.860;13.662;2023-01-25T06:14:55;98614.81;;;-1.07;100.00
32747;BME280;19118;50.860;13.662;2023-01-25T06:19:56;98612.81;;;-1.02;100.00
32747;BME280;19118;50.860;13.662;2023-01-25T06:25:18;98614.41;;;-0.99;100.00
32747;BME280;19118;50.860;13.662;2023-01-25T06:30:18;98613.81;;;-1.20;100.00
32747;BME280;19118;50.860;13.662;2023-01-25T06:35:19;98615.31;;;-1.48;100.00
32747;BME280;19118;50.860;13.662;2023-01-25T06:40:19;98617.06;;;-1.64;100.00
32747;BME280;19118;50.860;13.662;2023-01-25T06:45:19;98610.22;;;-1.49;100.00
32747;BME280;19118;50.860;13.662;2023-01-25T06:50:20;98617.25;;;-1.20;100.00
32747;BME280;19118;50.860;13.662;2023-01-25T06:55:20;98602.75;;;-1.08;100.00
32747;BME280;19118;50.860;13.662;2023-01-25T07:00:21;98598.72;;;-1.13;100.00
32747;BME280;19118;50.860;13.662;2023-01-25T07:05:21;98599.06;;;-1.04;100.00
32747;BME280;19118;50.860;13.662;2023-01-25T07:10:23;98596.63;;;-0.91;100.00
32747;BME280;19118;50.860;13.662;2023-01-25T07:15:23;98599.53;;;-0.81;100.00
32747;BME280;19118;50.860;13.662;2023-01-25T07:20:23;98583.94;;;-0.81;100.00
32747;BME280;19118;50.860;13.662;2023-01-25T07:25:24;98583.78;;;-0.78;100.00
32747;BME280;19118;50.860;13.662;2023-01-25T07:30:24;98567.31;;;-0.63;100.00
32747;BME280;19118;50.860;13.662;2023-01-25T07:35:24;98559.50;;;-0.77;100.00
32747;BME280;19118;50.860;13.662;2023-01-25T07:40:25;98558.38;;;-1.03;100.00
32747;BME280;19118;50.860;13.662;2023-01-25T07:45:25;98539.38;;;-0.74;100.00
32747;BME280;19118;50.860;13.662;2023-01-25T07:50:29;98536.19;;;-0.35;100.00
32747;BME280;19118;50.860;13.662;2023-01-25T07:55:29;98534.69;;;-0.39;100.00
32747;BME280;19118;50.860;13.662;2023-01-25T08:00:30;98524.97;;;-0.21;100.00
32747;BME280;19118;50.860;13.662;2023-01-25T08:05:30;98525.81;;;-0.06;100.00
32747;BME280;19118;50.860;13.662;2023-01-25T08:10:30;98504.88;;;0.10;100.00
32747;BME280;19118;50.860;13.662;2023-01-25T08:15:31;98490.25;;;0.36;100.00
32747;BME280;19118;50.860;13.662;2023-01-25T08:20:32;98474.94;;;0.58;100.00
32747;BME280;19118;50.860;13.662;2023-01-25T08:25:32;98465.13;;;0.49;100.00
32747;BME280;19118;50.860;13.662;2023-01-25T08:30:33;98443.94;;;0.68;100.00
32747;BME280;19118;50.860;13.662;2023-01-25T08:35:33;98434.88;;;0.34;100.00
32747;BME280;19118;50.860;13.662;2023-01-25T08:40:35;98417.16;;;0.66;100.00
32747;BME280;19118;50.860;13.662;2023-01-25T08:45:36;98416.28;;;0.79;100.00
32747;BME280;19118;50.860;13.662;2023-01-25T08:50:36;98412.44;;;0.98;100.00
32747;BME280;19118;50.860;13.662;2023-01-25T08:55:36;98404.81;;;1.45;100.00
32747;BME280;19118;50.860;13.662;2023-01-25T09:00:38;98397.72;;;0.71;100.00
32747;BME280;19118;50.860;13.662;2023-01-25T09:05:39;98392.91;;;-0.02;100.00
32747;BME280;19118;50.860;13.662;2023-01-25T09:10:40;98391.78;;;-0.53;100.00
32747;BME280;19118;50.860;13.662;2023-01-25T09:15:40;98393.94;;;-0.74;100.00
32747;BME280;19118;50.860;13.662;2023-01-25T09:20:40;98385.94;;;-0.71;100.00
32747;BME280;19118;50.860;13.662;2023-01-25T09:25:40;98389.56;;;-0.73;100.00
32747;BME280;19118;50.860;13.662;2023-01-25T09:30:42;98384.53;;;0.08;100.00
32747;BME280;19118;50.860;13.662;2023-01-25T09:35:48;98371.13;;;0.14;100.00
32747;BME280;19118;50.860;13.662;2023-01-25T09:46:37;98366.94;;;1.16;100.00
32747;BME280;19118;50.860;13.662;2023-01-25T09:57:00;98358.94;;;1.92;100.00
32747;BME280;19118;50.860;13.662;2023-01-25T10:02:08;98362.25;;;2.07;100.00
32747;BME280;19118;50.860;13.662;2023-01-25T10:07:24;98368.31;;;1.71;100.00
32747;BME280;19118;50.860;13.662;2023-01-25T10:12:27;98360.00;;;2.14;100.00
32747;BME280;19118;50.860;13.662;2023-01-25T10:17:38;98360.81;;;2.27;100.00
32747;BME280;19118;50.860;13.662;2023-01-25T10:22:45;98361.09;;;2.46;100.00
32747;BME280;19118;50.860;13.662;2023-01-25T10:33:12;98358.53;;;1.62;100.00
32747;BME280;19118;50.860;13.662;2023-01-25T10:38:20;98344.56;;;2.34;100.00
32747;BME280;19118;50.860;13.662;2023-01-25T10:43:24;98338.06;;;1.92;100.00
32747;BME280;19118;50.860;13.662;2023-01-25T10:48:32;98332.69;;;1.59;100.00
32747;BME280;19118;50.860;13.662;2023-01-25T10:53:36;98327.88;;;2.13;100.00
32747;BME280;19118;50.860;13.662;2023-01-25T10:58:41;98309.19;;;2.30;100.00
32747;BME280;19118;50.860;13.662;2023-01-25T11:03:42;98319.75;;;1.44;100.00
32747;BME280;19118;50.860;13.662;2023-01-25T11:08:46;98295.31;;;1.71;100.00
32747;BME280;19118;50.860;13.662;2023-01-25T11:13:46;98290.09;;;1.58;100.00
32747;BME280;19118;50.860;13.662;2023-01-25T11:18:52;98276.75;;;1.87;100.00
32747;BME280;19118;50.860;13.662;2023-01-25T11:23:59;98273.84;;;2.02;100.00
32747;BME280;19118;50.860;13.662;2023-01-25T11:34:13;98257.00;;;1.95;100.00
32747;BME280;19118;50.860;13.662;2023-01-25T11:39:41;98254.34;;;1.84;100.00
32747;BME280;19118;50.860;13.662;2023-01-25T11:55:27;98215.00;;;0.28;100.00
32747;BME280;19118;50.860;13.662;2023-01-25T12:00:52;98209.00;;;0.90;100.00
32747;BME280;19118;50.860;13.662;2023-01-25T12:06:21;98199.63;;;1.00;100.00
32747;BME280;19118;50.860;13.662;2023-01-25T12:22:00;98155.91;;;1.40;100.00
32747;BME280;19118;50.860;13.662;2023-01-25T12:37:40;98123.25;;;1.23;100.00
32747;BME280;19118;50.860;13.662;2023-01-25T12:42:46;98112.41;;;1.29;100.00
32747;BME280;19118;50.860;13.662;2023-01-25T12:48:41;98113.22;;;1.30;100.00
32747;BME280;19118;50.860;13.662;2023-01-25T12:53:38;98111.03;;;1.36;100.00
32747;BME280;19118;50.860;13.662;2023-01-25T12:59:08;98111.50;;;1.41;100.00
32747;BME280;19118;50.860;13.662;2023-01-25T13:09:55;98091.03;;;1.24;100.00
32747;BME280;19118;50.860;13.662;2023-01-25T13:14:57;98078.63;;;1.63;100.00
32747;BME280;19118;50.860;13.662;2023-01-25T13:19:58;98074.72;;;1.68;100.00
32747;BME280;19118;50.860;13.662;2023-01-25T13:35:39;98064.41;;;1.21;100.00
32747;BME280;19118;50.860;13.662;2023-01-25T13:40:40;98059.66;;;0.17;100.00
32747;BME280;19118;50.860;13.662;2023-01-25T13:45:41;98062.09;;;0.57;100.00
32747;BME280;19118;50.860;13.662;2023-01-25T13:50:45;98057.50;;;-0.14;100.00
32747;BME280;19118;50.860;13.662;2023-01-25T13:55:52;98056.94;;;0.32;100.00
32747;BME280;19118;50.860;13.662;2023-01-25T14:06:03;98041.47;;;0.54;100.00
32747;BME280;19118;50.860;13.662;2023-01-25T14:11:05;98039.16;;;0.62;100.00
32747;BME280;19118;50.860;13.662;2023-01-25T14:16:08;98031.72;;;0.45;100.00
32747;BME280;19118;50.860;13.662;2023-01-25T14:21:17;98025.91;;;-0.08;100.00
32747;BME280;19118;50.860;13.662;2023-01-25T14:26:20;98020.78;;;0.03;100.00
32747;BME280;19118;50.860;13.662;2023-01-25T14:31:27;98016.13;;;-0.17;100.00
32747;BME280;19118;50.860;13.662;2023-01-25T14:36:29;98012.63;;;-0.29;100.00
32747;BME280;19118;50.860;13.662;2023-01-25T14:41:31;98012.28;;;0.01;100.00
32747;BME280;19118;50.860;13.662;2023-01-25T14:46:35;98016.84;;;-0.15;100.00
32747;BME280;19118;50.860;13.662;2023-01-25T14:56:52;98004.50;;;-0.37;100.00
32747;BME280;19118;50.860;13.662;2023-01-25T15:01:57;97990.25;;;-0.19;100.00
32747;BME280;19118;50.860;13.662;2023-01-25T15:06:58;97986.84;;;-0.32;100.00
32747;BME280;19118;50.860;13.662;2023-01-25T15:12:26;97983.31;;;-0.44;100.00
32747;BME280;19118;50.860;13.662;2023-01-25T15:17:42;97978.59;;;-0.13;100.00
32747;BME280;19118;50.860;13.662;2023-01-25T15:22:43;97965.91;;;-0.05;100.00
32747;BME280;19118;50.860;13.662;2023-01-25T15:27:45;97960.31;;;0.25;100.00
32747;BME280;19118;50.860;13.662;2023-01-25T15:32:46;97957.06;;;0.21;100.00
32747;BME280;19118;50.860;13.662;2023-01-25T15:37:47;97949.72;;;0.15;100.00
32747;BME280;19118;50.860;13.662;2023-01-25T15:42:47;97937.00;;;-0.13;100.00
32747;BME280;19118;50.860;13.662;2023-01-25T15:47:48;97933.44;;;0.01;100.00
32747;BME280;19118;50.860;13.662;2023-01-25T15:52:48;97934.69;;;-0.05;100.00
32747;BME280;19118;50.860;13.662;2023-01-25T15:57:49;97934.22;;;-0.36;100.00
32747;BME280;19118;50.860;13.662;2023-01-25T16:02:49;97928.75;;;-0.69;100.00
32747;BME280;19118;50.860;13.662;2023-01-25T16:07:49;97919.03;;;-0.78;100.00
32747;BME280;19118;50.860;13.662;2023-01-25T16:12:50;97917.94;;;-1.14;100.00
32747;BME280;19118;50.860;13.662;2023-01-25T16:17:50;97921.47;;;-1.15;100.00
32747;BME280;19118;50.860;13.662;2023-01-25T16:22:50;97916.00;;;-0.98;100.00
32747;BME280;19118;50.860;13.662;2023-01-25T16:27:51;97919.94;;;-0.79;100.00
32747;BME280;19118;50.860;13.662;2023-01-25T16:32:52;97917.34;;;-0.92;100.00
32747;BME280;19118;50.860;13.662;2023-01-25T16:37:52;97916.28;;;-1.02;100.00
32747;BME280;19118;50.860;13.662;2023-01-25T16:42:53;97915.06;;;-0.97;100.00
32747;BME280;19118;50.860;13.662;2023-01-25T16:47:53;97900.31;;;-0.83;100.00
32747;BME280;19118;50.860;13.662;2023-01-25T16:52:53;97893.25;;;-0.81;100.00
32747;BME280;19118;50.860;13.662;2023-01-25T16:57:55;97892.63;;;-0.98;100.00
32747;BME280;19118;50.860;13.662;2023-01-25T17:02:57;97896.78;;;-0.95;100.00
32747;BME280;19118;50.860;13.662;2023-01-25T17:07:57;97899.28;;;-0.81;100.00
32747;BME280;19118;50.860;13.662;2023-01-25T17:12:57;97890.16;;;-0.86;100.00
32747;BME280;19118;50.860;13.662;2023-01-25T17:17:58;97887.44;;;-0.85;100.00
32747;BME280;19118;50.860;13.662;2023-01-25T17:22:58;97870.59;;;-0.79;100.00
32747;BME280;19118;50.860;13.662;2023-01-25T17:27:59;97869.88;;;-0.56;100.00
32747;BME280;19118;50.860;13.662;2023-01-25T17:32:59;97863.06;;;-0.46;100.00
32747;BME280;19118;50.860;13.662;2023-01-25T17:37:59;97869.97;;;-0.70;100.00
32747;BME280;19118;50.860;13.662;2023-01-25T17:43:00;97853.75;;;-0.61;100.00
32747;BME280;19118;50.860;13.662;2023-01-25T17:48:01;97850.00;;;-0.44;100.00
32747;BME280;19118;50.860;13.662;2023-01-25T17:53:02;97834.38;;;-0.32;100.00
32747;BME280;19118;50.860;13.662;2023-01-25T17:58:04;97838.97;;;-0.48;100.00
32747;BME280;19118;50.860;13.662;2023-01-25T18:03:05;97825.13;;;-0.85;100.00
32747;BME280;19118;50.860;13.662;2023-01-25T18:08:05;97821.41;;;-0.94;100.00
32747;BME280;19118;50.860;13.662;2023-01-25T18:13:06;97830.94;;;-0.94;100.00
32747;BME280;19118;50.860;13.662;2023-01-25T18:18:06;97820.34;;;-0.91;100.00
32747;BME280;19118;50.860;13.662;2023-01-25T18:23:07;97818.91;;;-0.95;100.00
32747;BME280;19118;50.860;13.662;2023-01-25T18:28:11;97814.75;;;-0.98;100.00
32747;BME280;19118;50.860;13.662;2023-01-25T18:33:12;97825.56;;;-1.04;100.00
32747;BME280;19118;50.860;13.662;2023-01-25T18:38:13;97809.69;;;-1.12;100.00
32747;BME280;19118;50.860;13.662;2023-01-25T18:43:14;97806.97;;;-0.98;100.00
32747;BME280;19118;50.860;13.662;2023-01-25T18:48:16;97812.28;;;-1.12;100.00
32747;BME280;19118;50.860;13.662;2023-01-25T18:53:19;97807.72;;;-1.21;100.00
32747;BME280;19118;50.860;13.662;2023-01-25T18:58:19;97804.41;;;-1.23;100.00
32747;BME280;19118;50.860;13.662;2023-01-25T19:03:20;97799.41;;;-1.01;100.00
32747;BME280;19118;50.860;13.662;2023-01-25T19:08:20;97788.91;;;-0.86;100.00
32747;BME280;19118;50.860;13.662;2023-01-25T19:13:20;97786.00;;;-0.95;100.00
32747;BME280;19118;50.860;13.662;2023-01-25T19:18:20;97785.06;;;-0.94;100.00
32747;BME280;19118;50.860;13.662;2023-01-25T19:23:21;97767.59;;;-0.79;100.00
32747;BME280;19118;50.860;13.662;2023-01-25T19:28:22;97764.22;;;-0.68;100.00
32747;BME280;19118;50.860;13.662;2023-01-25T19:33:22;97745.91;;;-0.54;100.00
32747;BME280;19118;50.860;13.662;2023-01-25T19:38:23;97737.50;;;-0.34;100.00
32747;BME280;19118;50.860;13.662;2023-01-25T19:43:23;97726.13;;;-0.44;100.00
32747;BME280;19118;50.860;13.662;2023-01-25T19:48:23;97719.97;;;-0.43;100.00
32747;BME280;19118;50.860;13.662;2023-01-25T19:53:23;97707.59;;;-0.39;100.00
32747;BME280;19118;50.860;13.662;2023-01-25T19:58:25;97701.84;;;-0.32;100.00
32747;BME280;19118;50.860;13.662;2023-01-25T20:03:28;97698.56;;;-0.22;100.00
32747;BME280;19118;50.860;13.662;2023-01-25T20:08:29;97696.66;;;-0.32;100.00
32747;BME280;19118;50.860;13.662;2023-01-25T20:13:30;97699.31;;;-0.44;100.00
32747;BME280;19118;50.860;13.662;2023-01-25T20:18:31;97686.97;;;-0.30;100.00
32747;BME280;19118;50.860;13.662;2023-01-25T20:23:34;97690.16;;;-0.26;100.00
32747;BME280;19118;50.860;13.662;2023-01-25T20:28:35;97680.22;;;-0.32;100.00
32747;BME280;19118;50.860;13.662;2023-01-25T20:33:35;97669.78;;;-0.43;100.00
32747;BME280;19118;50.860;13.662;2023-01-25T20:38:36;97667.75;;;-0.51;100.00
32747;BME280;19118;50.860;13.662;2023-01-25T20:43:36;97662.22;;;-0.70;100.00
32747;BME280;19118;50.860;13.662;2023-01-25T20:48:36;97656.59;;;-0.64;100.00
32747;BME280;19118;50.860;13.662;2023-01-25T20:53:37;97642.16;;;-0.68;100.00
32747;BME280;19118;50.860;13.662;2023-01-25T20:58:38;97648.75;;;-0.75;100.00
32747;BME280;19118;50.860;13.662;2023-01-25T21:03:38;97630.63;;;-0.64;100.00
32747;BME280;19118;50.860;13.662;2023-01-25T21:08:39;97632.69;;;-0.56;100.00
32747;BME280;19118;50.860;13.662;2023-01-25T21:13:40;97623.94;;;-0.55;100.00
32747;BME280;19118;50.860;13.662;2023-01-25T21:18:46;97616.50;;;-0.49;100.00
32747;BME280;19118;50.860;13.662;2023-01-25T21:23:48;97617.22;;;-0.47;100.00
32747;BME280;19118;50.860;13.662;2023-01-25T21:28:50;97612.25;;;-0.50;100.00
32747;BME280;19118;50.860;13.662;2023-01-25T21:33:50;97602.84;;;-0.40;100.00
32747;BME280;19118;50.860;13.662;2023-01-25T21:38:52;97600.25;;;-0.40;100.00
32747;BME280;19118;50.860;13.662;2023-01-25T21:43:54;97596.91;;;-0.53;100.00
32747;BME280;19118;50.860;13.662;2023-01-25T21:49:13;97587.66;;;-0.57;100.00
32747;BME280;19118;50.860;13.662;2023-01-25T21:54:33;97572.69;;;-0.65;100.00
32747;BME280;19118;50.860;13.662;2023-01-25T21:59:35;97570.44;;;-0.58;100.00
32747;BME280;19118;50.860;13.662;2023-01-25T22:04:37;97571.84;;;-0.65;100.00
32747;BME280;19118;50.860;13.662;2023-01-25T22:09:37;97572.34;;;-0.49;100.00
32747;BME280;19118;50.860;13.662;2023-01-25T22:14:37;97569.44;;;-0.44;100.00
32747;BME280;19118;50.860;13.662;2023-01-25T22:19:38;97563.75;;;-0.84;100.00
32747;BME280;19118;50.860;13.662;2023-01-25T22:24:38;97572.91;;;-0.92;100.00
32747;BME280;19118;50.860;13.662;2023-01-25T22:29:38;97565.91;;;-0.78;100.00
32747;BME280;19118;50.860;13.662;2023-01-25T22:34:39;97548.44;;;-0.76;100.00
32747;BME280;19118;50.860;13.662;2023-01-25T22:39:39;97543.28;;;-0.65;100.00
32747;BME280;19118;50.860;13.662;2023-01-25T22:44:39;97542.16;;;-0.85;100.00
32747;BME280;19118;50.860;13.662;2023-01-25T22:49:40;97538.06;;;-0.76;100.00
32747;BME280;19118;50.860;13.662;2023-01-25T22:54:40;97530.50;;;-0.68;100.00
32747;BME280;19118;50.860;13.662;2023-01-25T22:59:40;97523.66;;;-0.69;100.00
32747;BME280;19118;50.860;13.662;2023-01-25T23:04:41;97516.59;;;-0.67;100.00
32747;BME280;19118;50.860;13.662;2023-01-25T23:09:41;97514.06;;;-0.80;100.00
32747;BME280;19118;50.860;13.662;2023-01-25T23:14:43;97503.28;;;-0.98;100.00
32747;BME280;19118;50.860;13.662;2023-01-25T23:19:50;97505.44;;;-1.51;100.00
32747;BME280;19118;50.860;13.662;2023-01-25T23:24:50;97503.94;;;-1.42;100.00
32747;BME280;19118;50.860;13.662;2023-01-25T23:29:50;97492.84;;;-1.20;100.00
32747;BME280;19118;50.860;13.662;2023-01-25T23:34:51;97484.13;;;-1.19;100.00
32747;BME280;19118;50.860;13.662;2023-01-25T23:39:52;97483.91;;;-1.05;100.00
32747;BME280;19118;50.860;13.662;2023-01-25T23:44:52;97473.94;;;-0.98;100.00
32747;BME280;19118;50.860;13.662;2023-01-25T23:49:52;97474.53;;;-0.83;100.00
32747;BME280;19118;50.860;13.662;2023-01-25T23:54:53;97458.50;;;-0.77;100.00
32747;BME280;19118;50.860;13.662;2023-01-25T23:59:53;97468.66;;;-0.74;100.00
